createdAt,value
2022-09-22T00:01:01.370Z,24.20
2022-09-22T00:03:35.180Z,24.20
2022-09-22T00:06:03.827Z,24.10
2022-09-22T00:08:31.548Z,24.10
2022-09-22T00:11:08.204Z,24.10
2022-09-22T00:13:35.277Z,24.10
2022-09-22T00:16:02.686Z,24.10
2022-09-22T00:18:29.415Z,24.10
2022-09-22T00:20:56.124Z,24.20
2022-09-22T00:23:26.375Z,24.20
2022-09-22T00:25:52.955Z,24.10
2022-09-22T00:28:20.212Z,24.10
2022-09-22T00:30:47.376Z,24.20
2022-09-22T00:33:13.963Z,24.10
2022-09-22T00:35:40.545Z,24.20
2022-09-22T00:38:08.065Z,24.10
2022-09-22T00:40:35.433Z,24.20
2022-09-22T00:43:20.996Z,24.20
2022-09-22T00:45:49.588Z,24.10
2022-09-22T00:48:16.538Z,24.20
2022-09-22T00:50:43.118Z,24.10
2022-09-22T00:53:11.380Z,24.10
2022-09-22T00:55:49.470Z,24.10
2022-09-22T00:58:18.635Z,24.10
2022-09-22T01:00:45.275Z,24.10
2022-09-22T01:03:14.270Z,24.10
2022-09-22T01:05:41.444Z,24.10
2022-09-22T01:08:08.421Z,24.10
2022-09-22T01:10:34.996Z,24.10
2022-09-22T01:13:01.505Z,24.10
2022-09-22T01:15:31.553Z,24.10
2022-09-22T01:18:20.159Z,24.10
2022-09-22T01:21:14.073Z,24.10
2022-09-22T01:23:51.043Z,24.10
2022-09-22T01:26:35.700Z,24.10
2022-09-22T01:29:11.265Z,24.10
2022-09-22T01:31:45.326Z,24.10
2022-09-22T01:34:29.563Z,24.10
2022-09-22T01:37:16.244Z,24.10
2022-09-22T01:39:51.340Z,24.00
2022-09-22T01:42:38.031Z,24.10
2022-09-22T01:45:10.155Z,24.00
2022-09-22T01:47:44.808Z,24.10
2022-09-22T01:50:16.432Z,24.10
2022-09-22T01:52:43.906Z,24.00
2022-09-22T01:55:25.238Z,24.00
2022-09-22T01:57:55.956Z,24.00
2022-09-22T02:00:23.174Z,24.00
2022-09-22T02:02:54.123Z,24.00
2022-09-22T02:05:32.059Z,24.00
2022-09-22T02:07:58.649Z,24.00
2022-09-22T02:10:27.821Z,24.00
2022-09-22T02:12:55.409Z,24.10
2022-09-22T02:15:40.383Z,24.10
2022-09-22T02:18:13.497Z,24.10
2022-09-22T02:20:40.528Z,24.10
2022-09-22T02:23:07.232Z,24.10
2022-09-22T02:25:34.090Z,24.10
2022-09-22T02:28:00.768Z,24.10
2022-09-22T02:30:27.416Z,24.00
2022-09-22T02:32:54.227Z,24.00
2022-09-22T02:35:20.992Z,24.00
2022-09-22T02:37:54.084Z,24.00
2022-09-22T02:40:27.583Z,24.00
2022-09-22T02:43:33.656Z,24.00
2022-09-22T02:46:07.736Z,24.00
2022-09-22T02:48:42.643Z,24.00
2022-09-22T02:51:09.616Z,24.00
2022-09-22T02:53:36.562Z,24.00
2022-09-22T02:56:03.888Z,24.00
2022-09-22T02:58:30.471Z,24.00
2022-09-22T03:00:57.047Z,24.00
2022-09-22T03:03:23.624Z,24.00
2022-09-22T03:05:50.196Z,24.00
2022-09-22T03:08:16.841Z,24.00
2022-09-22T03:10:43.399Z,24.00
2022-09-22T03:13:16.437Z,24.00
2022-09-22T03:15:44.516Z,24.00
2022-09-22T03:18:11.133Z,24.00
2022-09-22T03:20:37.699Z,24.00
2022-09-22T03:23:04.280Z,24.00
2022-09-22T03:25:30.871Z,24.00
2022-09-22T03:27:57.451Z,24.00
2022-09-22T03:30:24.031Z,24.00
2022-09-22T03:32:50.600Z,24.00
2022-09-22T03:35:17.263Z,24.00
2022-09-22T03:37:43.831Z,24.00
2022-09-22T03:40:10.562Z,24.00
2022-09-22T03:42:37.134Z,24.00
2022-09-22T03:45:04.311Z,24.00
2022-09-22T03:47:31.077Z,24.00
2022-09-22T03:49:57.750Z,24.00
2022-09-22T03:52:24.390Z,24.00
2022-09-22T03:54:52.151Z,24.00
2022-09-22T03:57:18.735Z,24.00
2022-09-22T03:59:45.456Z,24.00
2022-09-22T04:02:12.506Z,24.00
2022-09-22T04:04:39.124Z,24.00
2022-09-22T04:07:07.339Z,24.00
2022-09-22T04:09:34.326Z,23.90
2022-09-22T04:12:01.017Z,24.00
2022-09-22T04:14:27.657Z,23.90
2022-09-22T04:16:54.357Z,23.90
2022-09-22T04:19:21.052Z,23.90
2022-09-22T04:21:47.623Z,24.00
2022-09-22T04:24:14.215Z,24.00
2022-09-22T04:26:56.383Z,24.00
2022-09-22T04:29:27.465Z,24.00
2022-09-22T04:31:54.023Z,24.00
2022-09-22T04:34:20.847Z,24.00
2022-09-22T04:36:47.708Z,24.00
2022-09-22T04:39:14.282Z,24.00
2022-09-22T04:41:40.853Z,23.90
2022-09-22T04:44:07.457Z,24.00
2022-09-22T04:46:34.099Z,24.00
2022-09-22T04:49:00.902Z,23.90
2022-09-22T04:51:27.459Z,23.90
2022-09-22T04:53:54.168Z,24.00
2022-09-22T04:56:21.703Z,23.90
2022-09-22T04:58:48.271Z,23.90
2022-09-22T05:01:14.883Z,23.90
2022-09-22T05:03:41.734Z,23.90
2022-09-22T05:06:08.436Z,23.90
2022-09-22T05:08:35.051Z,23.90
2022-09-22T05:11:01.645Z,23.90
2022-09-22T05:13:30.207Z,23.90
2022-09-22T05:15:56.789Z,23.90
2022-09-22T05:18:23.561Z,23.90
2022-09-22T05:20:50.141Z,23.90
2022-09-22T05:23:16.702Z,23.90
2022-09-22T05:25:44.036Z,23.90
2022-09-22T05:28:11.940Z,23.90
2022-09-22T05:30:38.525Z,23.90
2022-09-22T05:33:05.268Z,23.90
2022-09-22T05:35:36.501Z,23.90
2022-09-22T05:38:03.793Z,23.90
2022-09-22T05:40:31.007Z,23.90
2022-09-22T05:42:57.994Z,23.90
2022-09-22T05:45:24.611Z,23.90
2022-09-22T05:47:51.372Z,23.90
2022-09-22T05:50:18.812Z,23.90
2022-09-22T05:52:45.402Z,23.90
2022-09-22T05:55:12.596Z,23.90
2022-09-22T05:57:39.240Z,24.00
2022-09-22T06:00:07.287Z,23.90
2022-09-22T06:02:33.923Z,23.90
2022-09-22T06:05:01.012Z,23.90
2022-09-22T06:07:27.791Z,23.90
2022-09-22T06:09:54.370Z,23.90
2022-09-22T06:12:21.074Z,24.00
2022-09-22T06:14:47.650Z,24.00
2022-09-22T06:17:14.295Z,24.00
2022-09-22T06:19:40.913Z,24.00
2022-09-22T06:22:08.645Z,24.00
2022-09-22T06:24:35.263Z,24.00
2022-09-22T06:27:01.844Z,24.00
2022-09-22T06:29:28.793Z,24.00
2022-09-22T06:31:55.531Z,24.00
2022-09-22T06:34:23.803Z,24.00
2022-09-22T06:36:50.423Z,24.00
2022-09-22T06:39:17.085Z,24.00
2022-09-22T06:41:44.804Z,24.00
2022-09-22T06:44:14.264Z,24.00
2022-09-22T06:46:41.047Z,24.00
2022-09-22T06:49:07.648Z,24.00
2022-09-22T06:51:35.354Z,24.00
2022-09-22T06:54:05.124Z,24.00
2022-09-22T06:56:36.808Z,24.00
2022-09-22T06:59:10.149Z,24.00
2022-09-22T07:01:37.307Z,23.90
2022-09-22T07:04:04.601Z,24.00
2022-09-22T07:06:31.302Z,24.00
2022-09-22T07:08:57.886Z,24.00
2022-09-22T07:11:24.499Z,23.90
2022-09-22T07:13:53.282Z,24.00
2022-09-22T07:16:21.070Z,24.00
2022-09-22T07:18:55.976Z,24.00
2022-09-22T07:21:36.234Z,24.00
2022-09-22T07:24:02.808Z,24.00
2022-09-22T07:26:33.645Z,24.00
2022-09-22T07:29:01.745Z,24.00
2022-09-22T07:31:29.477Z,24.00
2022-09-22T07:33:56.236Z,24.00
2022-09-22T07:36:24.124Z,24.00
2022-09-22T07:38:51.386Z,24.00
2022-09-22T07:41:22.945Z,24.00
2022-09-22T07:43:50.976Z,24.00
2022-09-22T07:46:17.587Z,23.90
2022-09-22T07:48:47.786Z,23.90
2022-09-22T07:51:20.422Z,24.00
2022-09-22T07:53:48.344Z,23.90
2022-09-22T07:56:16.670Z,23.90
2022-09-22T07:58:50.585Z,24.00
2022-09-22T08:01:17.825Z,23.90
2022-09-22T08:03:47.159Z,24.00
2022-09-22T08:06:15.963Z,23.90
2022-09-22T08:08:53.653Z,23.90
2022-09-22T08:11:21.583Z,24.00
2022-09-22T08:13:59.958Z,23.90
2022-09-22T08:16:34.061Z,24.00
2022-09-22T08:19:10.411Z,23.90
2022-09-22T08:21:37.145Z,23.90
2022-09-22T08:24:04.772Z,23.90
2022-09-22T08:26:31.401Z,23.90
2022-09-22T08:28:57.991Z,23.90
2022-09-22T08:31:26.363Z,23.90
2022-09-22T08:33:54.037Z,23.90
2022-09-22T08:36:21.092Z,23.90
2022-09-22T08:38:48.566Z,23.90
2022-09-22T08:41:18.139Z,23.90
2022-09-22T08:43:54.331Z,23.90
2022-09-22T08:46:50.342Z,23.90
2022-09-22T08:49:43.560Z,23.90
2022-09-22T08:52:23.450Z,23.90
2022-09-22T08:54:50.106Z,23.90
2022-09-22T08:57:57.606Z,23.90
2022-09-22T09:00:24.699Z,23.90
2022-09-22T09:03:10.024Z,23.90
2022-09-22T09:05:55.776Z,23.90
2022-09-22T09:08:28.480Z,23.90
2022-09-22T09:10:56.798Z,23.90
2022-09-22T09:13:40.989Z,23.90
2022-09-22T09:16:37.948Z,23.90
2022-09-22T09:19:28.270Z,23.90
2022-09-22T09:21:57.421Z,23.90
2022-09-22T09:27:29.103Z,23.90
2022-09-22T09:30:21.131Z,23.90
2022-09-22T09:33:04.609Z,24.00
2022-09-22T09:35:51.960Z,24.00
2022-09-22T09:38:25.762Z,24.00
2022-09-22T09:40:54.600Z,24.00
2022-09-22T09:43:22.433Z,24.00
2022-09-22T09:46:18.740Z,24.00
2022-09-22T09:48:58.553Z,24.00
2022-09-22T09:51:25.930Z,24.00
2022-09-22T09:53:52.667Z,24.00
2022-09-22T09:56:24.907Z,24.00
2022-09-22T09:59:17.091Z,24.10
2022-09-22T10:01:45.302Z,24.10
2022-09-22T10:04:32.119Z,24.10
2022-09-22T10:07:18.776Z,24.00
2022-09-22T10:09:45.411Z,24.00
2022-09-22T10:12:34.932Z,24.10
2022-09-22T10:15:01.714Z,24.10
2022-09-22T10:17:39.431Z,24.10
2022-09-22T10:20:22.770Z,24.10
2022-09-22T10:22:49.716Z,24.10
2022-09-22T10:25:24.589Z,24.10
2022-09-22T10:28:04.918Z,24.00
2022-09-22T10:30:38.205Z,24.10
2022-09-22T10:33:10.599Z,24.10
2022-09-22T10:35:37.302Z,24.10
2022-09-22T10:38:22.115Z,24.10
2022-09-22T10:41:10.422Z,24.10
2022-09-22T10:44:03.164Z,24.10
2022-09-22T10:46:57.734Z,24.10
2022-09-22T10:49:35.060Z,24.10
2022-09-22T10:52:20.342Z,24.10
2022-09-22T10:54:51.481Z,24.20
2022-09-22T10:57:42.227Z,24.10
2022-09-22T11:00:22.243Z,24.20
2022-09-22T11:03:15.409Z,24.20
2022-09-22T11:06:30.683Z,24.20
2022-09-22T11:12:43.638Z,24.20
2022-09-22T11:15:19.080Z,24.20
2022-09-22T11:18:00.524Z,24.20
2022-09-22T11:20:44.204Z,24.20
2022-09-22T11:23:23.176Z,24.20
2022-09-22T11:26:20.328Z,24.20
2022-09-22T11:29:06.586Z,24.20
2022-09-22T11:32:01.531Z,24.20
2022-09-22T11:34:35.251Z,24.20
2022-09-22T11:37:26.836Z,24.20
2022-09-22T11:40:03.401Z,24.20
2022-09-22T11:42:43.653Z,24.20
2022-09-22T11:45:38.208Z,24.20
2022-09-22T11:48:35.755Z,24.20
2022-09-22T11:51:15.634Z,24.20
2022-09-22T11:53:48.000Z,24.20
2022-09-22T11:56:34.019Z,24.20
2022-09-22T11:59:04.376Z,24.20
2022-09-22T12:01:37.259Z,24.20
2022-09-22T12:04:20.020Z,24.20
2022-09-22T12:06:49.331Z,24.30
2022-09-22T12:09:36.759Z,24.30
2022-09-22T12:12:04.059Z,24.20
2022-09-22T12:14:30.641Z,24.20
2022-09-22T12:17:05.877Z,24.30
2022-09-22T12:19:35.372Z,24.20
2022-09-22T12:22:44.788Z,24.20
2022-09-22T12:25:21.241Z,24.30
2022-09-22T12:27:58.595Z,24.30
2022-09-22T12:30:25.321Z,24.30
2022-09-22T12:32:51.932Z,24.30
2022-09-22T12:35:20.117Z,24.30
2022-09-22T12:37:46.684Z,24.30
2022-09-22T12:40:28.919Z,24.30
2022-09-22T12:42:55.526Z,24.30
2022-09-22T12:45:34.626Z,24.30
2022-09-22T12:48:05.838Z,24.30
2022-09-22T12:50:42.994Z,24.30
2022-09-22T12:53:10.903Z,24.30
2022-09-22T12:55:40.713Z,24.30
2022-09-22T12:58:22.394Z,24.30
2022-09-22T13:00:50.433Z,24.30
2022-09-22T13:03:26.269Z,24.30
2022-09-22T13:06:23.686Z,24.30
2022-09-22T13:08:53.269Z,24.30
2022-09-22T13:11:20.139Z,24.30
2022-09-22T13:13:47.602Z,24.30
2022-09-22T13:16:14.186Z,24.30
2022-09-22T13:18:45.651Z,24.30
2022-09-22T13:21:12.148Z,24.30
2022-09-22T13:24:02.645Z,24.30
2022-09-22T13:26:37.131Z,24.30
2022-09-22T13:29:04.581Z,24.30
2022-09-22T13:31:54.341Z,24.30
2022-09-22T13:34:24.647Z,24.30
2022-09-22T13:36:51.963Z,24.30
2022-09-22T13:39:20.151Z,24.30
2022-09-22T13:41:49.090Z,24.30
2022-09-22T13:44:17.034Z,24.30
2022-09-22T13:46:47.274Z,24.30
2022-09-22T13:49:18.220Z,24.30
2022-09-22T13:51:49.328Z,24.30
2022-09-22T13:54:18.488Z,24.30
2022-09-22T13:56:45.458Z,24.40
2022-09-22T13:59:13.026Z,24.50
2022-09-22T14:01:46.764Z,24.50
2022-09-22T14:04:24.573Z,24.50
2022-09-22T14:06:53.828Z,24.40
2022-09-22T14:09:20.530Z,24.40
2022-09-22T14:11:47.104Z,24.40
2022-09-22T14:14:24.370Z,24.40
2022-09-22T14:16:59.174Z,24.40
2022-09-22T14:19:46.016Z,24.40
2022-09-22T14:22:20.499Z,24.40
2022-09-22T14:24:49.030Z,24.40
2022-09-22T14:27:31.120Z,24.40
2022-09-22T14:29:58.014Z,24.40
2022-09-22T14:32:44.430Z,24.40
2022-09-22T14:35:27.241Z,24.40
2022-09-22T14:37:56.212Z,24.40
2022-09-22T14:40:27.619Z,24.40
2022-09-22T14:43:21.594Z,24.40
2022-09-22T14:45:58.690Z,24.40
2022-09-22T14:48:32.611Z,24.40
2022-09-22T14:51:06.601Z,24.30
2022-09-22T14:53:37.379Z,24.30
2022-09-22T14:56:13.240Z,24.40
2022-09-22T14:58:41.208Z,24.40
2022-09-22T15:01:40.637Z,24.40
2022-09-22T15:04:30.259Z,24.30
2022-09-22T15:06:57.554Z,24.30
2022-09-22T15:09:29.128Z,24.30
2022-09-22T15:12:03.407Z,24.30
2022-09-22T15:14:42.076Z,24.40
2022-09-22T15:17:58.592Z,24.40
2022-09-22T15:20:58.859Z,24.40
2022-09-22T15:23:39.373Z,24.40
2022-09-22T15:26:05.957Z,24.40
2022-09-22T15:28:37.040Z,24.40
2022-09-22T15:31:04.125Z,24.40
2022-09-22T15:33:30.716Z,24.40
2022-09-22T15:36:09.969Z,24.40
2022-09-22T15:38:37.479Z,24.40
2022-09-22T15:41:04.149Z,24.40
2022-09-22T15:43:31.079Z,24.40
2022-09-22T15:46:09.120Z,24.40
2022-09-22T15:48:39.308Z,24.40
2022-09-22T15:51:15.219Z,24.40
2022-09-22T15:53:42.044Z,24.40
2022-09-22T15:56:12.967Z,24.40
2022-09-22T15:58:41.116Z,24.40
2022-09-22T16:01:07.879Z,24.40
2022-09-22T16:03:38.962Z,24.40
2022-09-22T16:06:10.691Z,24.40
2022-09-22T16:08:42.126Z,24.40
2022-09-22T16:11:27.203Z,24.40
2022-09-22T16:13:58.087Z,24.40
2022-09-22T16:16:26.919Z,24.40
2022-09-22T16:18:53.690Z,24.40
2022-09-22T16:21:29.254Z,24.40
2022-09-22T16:24:01.701Z,24.40
2022-09-22T16:26:31.581Z,24.40
2022-09-22T16:28:58.422Z,24.40
2022-09-22T16:31:25.748Z,24.40
2022-09-22T16:33:55.875Z,24.30
2022-09-22T16:36:23.051Z,24.30
2022-09-22T16:38:49.641Z,24.40
2022-09-22T16:41:24.808Z,24.40
2022-09-22T16:43:51.644Z,24.30
2022-09-22T16:46:28.010Z,24.30
2022-09-22T16:49:00.226Z,24.30
2022-09-22T16:51:27.605Z,24.30
2022-09-22T16:53:54.270Z,24.30
2022-09-22T16:56:22.146Z,24.40
2022-09-22T16:58:48.735Z,24.30
2022-09-22T17:01:19.446Z,24.30
2022-09-22T17:03:47.433Z,24.30
2022-09-22T17:06:15.135Z,24.30
2022-09-22T17:08:45.820Z,24.30
2022-09-22T17:11:13.532Z,24.30
2022-09-22T17:13:41.050Z,24.30
2022-09-22T17:16:24.493Z,24.30
2022-09-22T17:18:54.892Z,24.30
2022-09-22T17:21:21.934Z,24.30
2022-09-22T17:23:52.293Z,24.30
2022-09-22T17:26:20.103Z,24.30
2022-09-22T17:28:47.138Z,24.30
2022-09-22T17:31:14.945Z,24.30
2022-09-22T17:33:49.945Z,24.30
2022-09-22T17:36:19.979Z,24.30
2022-09-22T17:38:52.505Z,24.30
2022-09-22T17:41:19.976Z,24.30
2022-09-22T17:43:48.378Z,24.30
2022-09-22T17:46:18.270Z,24.30
2022-09-22T17:49:03.702Z,24.30
2022-09-22T17:51:56.173Z,24.30
2022-09-22T17:54:49.907Z,24.20
2022-09-22T17:57:18.400Z,24.30
2022-09-22T17:59:45.069Z,24.20
2022-09-22T18:02:12.665Z,24.20
2022-09-22T18:04:39.377Z,24.20
2022-09-22T18:07:06.942Z,24.20
2022-09-22T18:09:34.494Z,24.20
2022-09-22T18:12:01.664Z,24.20
2022-09-22T18:14:30.701Z,24.20
2022-09-22T18:17:00.752Z,24.20
2022-09-22T18:19:34.545Z,24.20
2022-09-22T18:22:02.410Z,24.20
2022-09-22T18:24:28.992Z,24.30
2022-09-22T18:26:55.560Z,24.20
2022-09-22T18:29:22.148Z,24.20
2022-09-22T18:31:53.006Z,24.20
2022-09-22T18:34:20.006Z,24.20
2022-09-22T18:36:46.648Z,24.20
2022-09-22T18:39:13.317Z,24.30
2022-09-22T18:41:41.162Z,24.20
2022-09-22T18:44:09.167Z,24.20
2022-09-22T18:46:36.211Z,24.30
2022-09-22T18:49:08.242Z,24.20
2022-09-22T18:51:37.085Z,24.20
2022-09-22T18:54:15.326Z,24.20
2022-09-22T18:56:44.047Z,24.20
2022-09-22T18:59:15.651Z,24.20
2022-09-22T19:01:42.548Z,24.20
2022-09-22T19:04:12.048Z,24.20
2022-09-22T19:06:57.306Z,24.20
2022-09-22T19:09:23.947Z,24.20
2022-09-22T19:11:53.268Z,24.20
2022-09-22T19:14:20.992Z,24.20
2022-09-22T19:16:50.950Z,24.20
2022-09-22T19:19:21.178Z,24.20
2022-09-22T19:21:51.470Z,24.20
2022-09-22T19:24:18.515Z,24.20
2022-09-22T19:26:45.492Z,24.20
2022-09-22T19:29:12.235Z,24.20
2022-09-22T19:31:40.496Z,24.20
2022-09-22T19:34:07.277Z,24.20
2022-09-22T19:36:33.954Z,24.20
2022-09-22T19:39:00.784Z,24.20
2022-09-22T19:41:27.559Z,24.20
2022-09-22T19:43:54.395Z,24.20
2022-09-22T19:46:21.061Z,24.20
2022-09-22T19:48:48.625Z,24.20
2022-09-22T19:51:15.319Z,24.20
2022-09-22T19:53:42.096Z,24.20
2022-09-22T19:56:09.081Z,24.20
2022-09-22T19:58:36.080Z,24.20
2022-09-22T20:01:02.699Z,24.20
2022-09-22T20:03:29.683Z,24.20
2022-09-22T20:05:56.256Z,24.20
2022-09-22T20:08:22.887Z,24.20
2022-09-22T20:10:58.395Z,24.20
2022-09-22T20:13:55.975Z,24.10
2022-09-22T20:16:22.544Z,24.20
2022-09-22T20:18:49.109Z,24.10
2022-09-22T20:21:15.786Z,24.10
2022-09-22T20:23:42.475Z,24.10
2022-09-22T20:26:09.064Z,24.10
2022-09-22T20:28:35.948Z,24.10
2022-09-22T20:31:02.675Z,24.10
2022-09-22T20:33:29.276Z,24.10
2022-09-22T20:35:55.855Z,24.10
2022-09-22T20:38:22.420Z,24.10
2022-09-22T20:40:49.511Z,24.10
2022-09-22T20:43:16.186Z,24.10
2022-09-22T20:45:43.082Z,24.10
2022-09-22T20:48:27.862Z,24.10
2022-09-22T20:50:55.615Z,24.10
2022-09-22T20:53:22.348Z,24.10
2022-09-22T20:56:02.613Z,24.10
2022-09-22T20:58:32.171Z,24.10
2022-09-22T21:00:59.486Z,24.10
2022-09-22T21:03:26.227Z,24.10
2022-09-22T21:05:52.806Z,24.20
2022-09-22T21:08:37.943Z,24.20
2022-09-22T21:11:04.551Z,24.30
2022-09-22T21:13:31.116Z,24.40
2022-09-22T21:16:03.440Z,24.50
2022-09-22T21:18:33.907Z,24.50
2022-09-22T21:21:01.026Z,24.50
2022-09-22T21:23:27.819Z,24.50
2022-09-22T21:26:05.608Z,24.50
2022-09-22T21:28:32.289Z,24.60
2022-09-22T21:31:00.734Z,24.50
2022-09-22T21:33:27.579Z,24.50
2022-09-22T21:36:19.835Z,24.50
2022-09-22T21:38:47.473Z,24.50
2022-09-22T21:41:15.577Z,24.40
2022-09-22T21:43:42.774Z,24.30
2022-09-22T21:46:16.720Z,24.30
2022-09-22T21:48:43.369Z,24.30
2022-09-22T21:51:11.696Z,24.30
2022-09-22T21:53:38.792Z,24.30
2022-09-22T21:56:06.911Z,24.30
2022-09-22T21:58:35.870Z,24.30
2022-09-22T22:01:06.884Z,24.30
2022-09-22T22:03:33.798Z,24.30
2022-09-22T22:06:11.001Z,24.30
2022-09-22T22:08:45.652Z,24.20
2022-09-22T22:11:14.195Z,24.30
2022-09-22T22:13:42.272Z,24.30
2022-09-22T22:16:11.369Z,24.20
2022-09-22T22:18:38.344Z,24.20
2022-09-22T22:21:26.081Z,24.30
2022-09-22T22:23:54.562Z,24.20
2022-09-22T22:26:22.759Z,24.20
2022-09-22T22:28:49.755Z,24.20
2022-09-22T22:31:19.050Z,24.20
2022-09-22T22:33:45.733Z,24.20
2022-09-22T22:36:13.821Z,24.20
2022-09-22T22:38:40.911Z,24.10
2022-09-22T22:41:10.520Z,24.20
2022-09-22T22:43:37.513Z,24.20
2022-09-22T22:46:04.943Z,24.10
2022-09-22T22:48:31.711Z,24.10
2022-09-22T22:50:58.468Z,24.20
2022-09-22T22:53:25.206Z,24.20
2022-09-22T22:55:59.812Z,24.20
2022-09-22T22:58:28.192Z,24.10
2022-09-22T23:01:07.364Z,24.10
2022-09-22T23:03:33.993Z,24.10
2022-09-22T23:06:00.624Z,24.20
2022-09-22T23:08:27.593Z,24.10
2022-09-22T23:11:24.123Z,24.20
2022-09-22T23:13:52.859Z,24.10
2022-09-22T23:16:21.165Z,24.10
2022-09-22T23:18:47.949Z,24.20
2022-09-22T23:21:15.715Z,24.10
2022-09-22T23:23:42.472Z,24.10
2022-09-22T23:26:09.805Z,24.10
2022-09-22T23:28:36.912Z,24.10
2022-09-22T23:31:23.788Z,24.10
2022-09-22T23:33:50.905Z,24.10
2022-09-22T23:36:20.892Z,24.10
2022-09-22T23:38:47.541Z,24.10
2022-09-22T23:41:14.133Z,24.00
2022-09-22T23:43:40.731Z,24.00
2022-09-22T23:46:07.668Z,24.10
2022-09-22T23:48:34.678Z,24.00
2022-09-22T23:51:01.361Z,24.00
2022-09-22T23:53:29.857Z,24.10
2022-09-22T23:55:56.438Z,24.00
2022-09-22T23:58:23.011Z,24.00
